FW2664 Weather Reports


Display with metric or nautical units.
time (UTC)temp
F
wind
direction
speed
MPH
gust
MPH
rain 1hr
in
rain 24hr
in
rain mn
in
humidity
%
barometer
mb
20210117001050 40 257 4.0 6.0 0.00 0.02 0.01 61 1016.8
20210117000050 40 252 4.0 7.0 0.00 0.02 0.01 61 1016.9
20210116235043 40 270 4.0 9.0 0.00 0.02 0.01 61 1016.9
20210116234038 40 259 4.0 7.0 0.00 0.02 0.01 61 1016.8
20210116233034 40 270 6.0 9.0 0.00 0.02 0.01 60 1016.7
20210116232032 40 261 4.0 7.0 0.00 0.02 0.01 60 1016.8
20210116231027 40 255 5.0 9.0 0.00 0.02 0.01 60 1016.7
20210116230036 40 260 4.0 6.0 0.00 0.02 0.01 60 1016.5
20210116225023 40 260 4.0 7.0 0.00 0.02 0.01 60 1016.5
20210116224021 40 256 3.0 5.0 0.00 0.02 0.01 58 1016.5
20210116223113 40 256 3.0 5.0 0.00 0.02 0.01 57 1016.4
20210116222125 41 270 4.0 5.0 0.00 0.02 0.01 56 1016.3
20210116221106 41 270 3.0 7.0 0.00 0.02 0.01 57 1016.2
20210116220103 41 270 4.0 6.0 0.00 0.02 0.01 56 1016.3
20210116215059 41 261 6.0 9.0 0.00 0.02 0.01 57 1016.2
20210116214107 41 270 4.0 7.0 0.00 0.02 0.01 57 1016.1
20210116213052 41 270 4.0 6.0 0.00 0.02 0.01 56 1016.2
20210116212047 41 244 5.0 8.0 0.00 0.02 0.01 55 1016.1
20210116211043 41 263 6.0 13.0 0.00 0.02 0.01 55 1015.9
20210116210048 41 270 5.0 9.0 0.00 0.02 0.01 55 1015.7
20210116205038 41 235 6.0 9.0 0.00 0.02 0.01 55 1015.6
20210116204033 41 270 6.0 9.0 0.00 0.02 0.01 54 1015.5
20210116203039 41 254 7.0 9.0 0.00 0.02 0.01 55 1015.4
20210116202036 42 274 5.0 9.0 0.00 0.02 0.01 56 1015.1
20210116201043 41 263 5.0 8.0 0.00 0.02 0.01 55 1015.1
20210116200046 41 229 5.0 9.0 0.00 0.02 0.01 54 1015.1
20210116195125 42 248 6.0 9.0 0.00 0.02 0.01 55 1015.1
20210116194119 42 241 6.0 10.0 0.00 0.02 0.01 56 1015.1
20210116193119 41 250 6.0 10.0 0.00 0.02 0.01 57 1015.0
20210116192124 41 270 6.0 13.0 0.00 0.02 0.01 59 1015.2
20210116191100 40 204 7.0 13.0 0.00 0.02 0.01 60 1015.1
20210116190115 40 262 5.0 8.0 0.00 0.02 0.01 61 1014.8
20210116185108 40 262 7.0 11.0 0.00 0.02 0.01 62 1015.1
20210116184049 40 270 6.0 8.0 0.00 0.02 0.01 62 1015.0
20210116183104 39 257 5.0 9.0 0.00 0.02 0.01 62 1015.0
20210116182422 39 235 5.0 7.0 0.00 0.02 0.01 62 1014.9
20210116181247 39 270 7.0 10.0 0.00 0.02 0.01 63 1015.0
20210116180050 39 270 7.0 10.0 0.00 0.02 0.01 63 1015.0
20210116175031 40 262 4.0 7.0 0.00 0.02 0.01 67 1015.1
20210116174026 38 270 6.0 9.0 0.00 0.02 0.01 67 1015.0
20210116173029 38 255 3.0 4.0 0.00 0.02 0.01 67 1015.0
20210116172025 38 279 5.0 8.0 0.00 0.02 0.01 67 1014.9
20210116171018 38 259 3.0 5.0 0.00 0.02 0.01 66 1015.0
20210116170115 37 285 6.0 8.0 0.00 0.02 0.01 66 1015.1
20210116165114 37 270 6.0 9.0 0.00 0.02 0.01 65 1015.2
20210116164114 37 276 5.0 8.0 0.00 0.02 0.01 64 1015.1
20210116163101 38 270 6.0 9.0 0.00 0.02 0.01 64 1015.1
20210116162100 38 284 10.0 15.0 0.00 0.02 0.01 64 1015.1
20210116161054 38 270 8.0 15.0 0.00 0.02 0.01 65 1015.0
20210116160054 38 270 7.0 13.0 0.00 0.02 0.01 66 1014.9
20210116155051 37 259 7.0 11.0 0.00 0.02 0.01 66 1014.7
20210116154058 38 261 6.0 14.0 0.00 0.02 0.01 69 1014.7
20210116153049 37 270 6.0 10.0 0.00 0.02 0.01 70 1014.6
20210116152048 36 257 4.0 7.0 0.00 0.02 0.01 70 1014.4
20210116151032 36 270 5.0 9.0 0.00 0.02 0.01 70 1014.1
20210116150041 36 270 4.0 7.0 0.00 0.02 0.01 70 1013.9
20210116145024 36 270 6.0 11.0 0.00 0.02 0.01 71 1013.8
20210116144024 36 270 5.0 8.0 0.00 0.02 0.01 73 1013.6
20210116143037 36 268 6.0 8.0 0.00 0.02 0.01 74 1013.4
20210116142122 36 270 7.0 9.0 0.00 0.02 0.01 75 1013.4
20210116141252 36 254 5.0 9.0 0.00 0.02 0.01 77 1013.0
20210116140258 36 261 6.0 9.0 0.00 0.02 0.01 78 1012.8
20210116135105 35 242 5.0 9.0 0.00 0.02 0.01 80 1012.4
20210116134106 35 262 5.0 9.0 0.00 0.02 0.01 80 1012.2
20210116133110 35 270 3.0 7.0 0.00 0.02 0.01 80 1012.0
20210116132053 35 270 4.0 5.0 0.00 0.02 0.01 80 1011.9
20210116131051 35 258 6.0 10.0 0.00 0.02 0.01 80 1011.7
20210116130109 35 262 4.0 8.0 0.00 0.02 0.01 80 1011.5
20210116125114 35 254 5.0 8.0 0.00 0.02 0.01 81 1011.5
20210116124036 35 270 5.0 7.0 0.00 0.02 0.01 81 1011.3
20210116123040 35 242 5.0 8.0 0.00 0.02 0.01 81 1011.1
20210116122029 35 258 5.0 8.0 0.00 0.02 0.01 81 1011.0
20210116121026 35 262 3.0 4.0 0.00 0.02 0.01 81 1010.8
20210116120048 35 271 5.0 11.0 0.01 0.02 0.01 81 1010.5
20210116115025 35 251 4.0 7.0 0.01 0.02 0.01 82 1010.2
20210116114114 35 287 5.0 7.0 0.01 0.02 0.01 82 1010.0
20210116113111 35 263 5.0 9.0 0.01 0.02 0.01 83 1010.0
20210116112117 35 270 4.0 7.0 0.01 0.02 0.01 84 1009.7
20210116111107 35 259 4.0 6.0 0.01 0.02 0.01 84 1009.8
20210116110100 35 265 4.0 6.0 0.00 0.01 0.00 84 1009.6
20210116105057 35 270 4.0 6.0 0.00 0.01 0.00 84 1009.5
20210116104053 35 270 5.0 7.0 0.00 0.01 0.00 83 1009.4
20210116103055 35 247 4.0 7.0 0.00 0.01 0.00 83 1009.3
20210116102048 35 250 5.0 7.0 0.00 0.01 0.00 83 1009.3
20210116101042 35 264 4.0 7.0 0.00 0.01 0.00 82 1009.3
20210116100056 35 265 4.0 7.0 0.00 0.01 0.00 82 1009.2
20210116095044 35 266 6.0 11.0 0.00 0.01 0.00 82 1009.2
20210116094030 35 261 4.0 7.0 0.00 0.01 0.00 83 1009.1
20210116093035 35 244 4.0 7.0 0.00 0.01 0.00 83 1009.1
20210116092023 35 248 3.0 6.0 0.00 0.01 0.00 83 1009.1
20210116091023 35 230 4.0 6.0 0.00 0.01 0.00 83 1009.2
20210116090030 35 235 3.0 5.0 0.00 0.02 0.00 83 1009.1
20210116085114 35 240 3.0 6.0 0.00 0.02 0.00 83 1009.2
20210116084119 35 218 3.0 9.0 0.00 0.02 0.00 83 1009.2
20210116083123 35 217 3.0 6.0 0.00 0.02 0.00 84 1009.1
20210116082109 35 242 3.0 7.0 0.00 0.02 0.00 84 1009.3
20210116081058 35 260 2.0 5.0 0.00 0.02 0.00 84 1009.2
20210116080057 35 236 2.0 5.0 0.00 0.02 0.00 84 1009.2
20210116075045 35 264 5.0 7.0 0.00 0.02 0.00 83 1009.2
20210116074041 35 245 3.0 5.0 0.00 0.02 0.00 83 1009.3
20210116073039 35 266 3.0 5.0 0.00 0.02 0.00 82 1009.1
20210116072035 35 236 2.0 4.0 0.00 0.02 0.00 82 1009.2
20210116071030 35 254 3.0 6.0 0.00 0.02 0.00 81 1009.2
20210116070047 35 257 4.0 8.0 0.00 0.02 0.00 81 1009.1
20210116065023 35 261 4.0 7.0 0.00 0.02 0.00 80 1009.2
20210116064022 36 264 4.0 5.0 0.00 0.02 0.00 80 1009.1
20210116063031 36 263 4.0 7.0 0.00 0.02 0.00 80 1009.1
20210116062119 36 256 6.0 8.0 0.00 0.02 0.00 80 1009.2
20210116061112 36 262 4.0 7.0 0.00 0.02 0.00 81 1009.3
20210116060108 36 270 4.0 7.0 0.01 0.02 0.00 82 1009.2
20210116055102 36 230 2.0 4.0 0.01 0.02 0.02 84 1009.3
20210116054058 35 244 1.0 4.0 0.01 0.02 0.02 85 1009.5
20210116053056 35 180 1.0 2.0 0.01 0.02 0.02 85 1009.6
20210116052051 35 156 1.0 3.0 0.01 0.02 0.02 85 1009.6
20210116051050 35 117 1.0 3.0 0.01 0.02 0.02 84 1009.7
20210116050046 35 171 1.0 2.0 0.00 0.02 0.01 84 1009.9
20210116045052 35 161 2.0 3.0 0.00 0.02 0.01 83 1010.0
20210116044037 36 207 2.0 3.0 0.00 0.02 0.01 82 1010.0
20210116043034 36 270 2.0 5.0 0.00 0.02 0.01 81 1010.1
20210116042036 36 270 3.0 5.0 0.00 0.02 0.01 81 1010.0
20210116041026 36 233 2.0 5.0 0.00 0.02 0.01 82 1010.0
20210116040024 36 248 2.0 4.0 0.00 0.02 0.01 82 1010.0
20210116035019 36 216 2.0 4.0 0.00 0.02 0.01 82 1010.2
20210116034114 36 243 1.0 2.0 0.00 0.02 0.01 82 1010.2
20210116033111 36 231 2.0 3.0 0.00 0.02 0.01 82 1010.1
20210116032119 35 181 3.0 4.0 0.00 0.02 0.01 82 1010.1
20210116031103 35 180 1.0 3.0 0.00 0.02 0.01 82 1010.3
20210116030100 35 223 2.0 6.0 0.00 0.02 0.01 82 1010.2
20210116025057 35 186 1.0 3.0 0.00 0.02 0.01 82 1010.3
20210116024055 35 113 1.0 3.0 0.00 0.02 0.01 81 1010.5
20210116023053 36 0.0 0.0 0.00 0.02 0.01 81 1010.4
20210116022046 36 248 2.0 3.0 0.00 0.02 0.01 81 1010.4
20210116021043 37 264 3.0 5.0 0.00 0.02 0.01 81 1010.5
20210116020042 37 254 4.0 6.0 0.00 0.02 0.01 80 1010.5
20210116015034 37 231 3.0 5.0 0.00 0.02 0.01 81 1010.6
20210116014031 37 270 5.0 7.0 0.00 0.02 0.01 81 1010.7
20210116013033 37 270 6.0 9.0 0.00 0.02 0.01 81 1010.7
20210116012034 37 265 5.0 9.0 0.00 0.02 0.01 81 1010.7
20210116011023 37 244 3.0 5.0 0.00 0.02 0.01 81 1010.7
20210116010036 37 261 5.0 8.0 0.00 0.02 0.01 76 1010.6
20210116005112 39 274 8.0 12.0 0.00 0.02 0.01 64 1010.5
20210116004108 41 270 7.0 17.0 0.00 0.02 0.01 57 1010.3
20210116003108 42 270 5.0 8.0 0.00 0.02 0.01 53 1009.9
20210116002110 42 263 4.0 7.0 0.00 0.02 0.01 53 1009.8